createdAt,value
2022-09-04T00:00:21.921Z,19.14
2022-09-04T00:03:36.174Z,19.05
2022-09-04T00:06:12.975Z,19.02
2022-09-04T00:09:12.503Z,19.08
2022-09-04T00:11:56.019Z,19.45
2022-09-04T00:14:41.924Z,18.89
2022-09-04T00:17:32.458Z,19.02
2022-09-04T00:20:09.567Z,19.01
2022-09-04T00:22:44.652Z,19.02
2022-09-04T00:25:19.263Z,18.90
2022-09-04T00:27:53.517Z,18.62
2022-09-04T00:30:26.912Z,19.18
2022-09-04T00:33:33.484Z,18.44
2022-09-04T00:36:06.138Z,18.83
2022-09-04T00:38:59.612Z,18.74
2022-09-04T00:41:33.635Z,18.65
2022-09-04T00:44:27.737Z,19.20
2022-09-04T00:47:07.454Z,18.82
2022-09-04T00:49:42.815Z,18.95
2022-09-04T00:52:29.604Z,18.96
2022-09-04T00:55:22.377Z,19.49
2022-09-04T00:58:30.970Z,19.34
2022-09-04T01:01:01.179Z,19.57
2022-09-04T01:03:36.918Z,19.48
2022-09-04T01:06:32.873Z,19.08
2022-09-04T01:09:45.483Z,18.93
2022-09-04T01:12:33.196Z,18.64
2022-09-04T01:15:14.679Z,18.99
2022-09-04T01:18:04.458Z,18.41
2022-09-04T01:20:54.639Z,18.24
2022-09-04T01:23:22.800Z,18.39
2022-09-04T01:26:01.770Z,18.51
2022-09-04T01:28:52.603Z,18.75
2022-09-04T01:31:39.446Z,17.87
2022-09-04T01:34:20.856Z,18.09
2022-09-04T01:36:57.078Z,18.29
2022-09-04T01:39:26.698Z,18.31
2022-09-04T01:42:12.616Z,18.58
2022-09-04T01:44:41.377Z,18.88
2022-09-04T01:47:26.335Z,18.79
2022-09-04T01:50:00.861Z,19.33
2022-09-04T01:52:36.816Z,19.43
2022-09-04T01:55:17.180Z,19.26
2022-09-04T01:58:09.889Z,19.35
2022-09-04T02:01:04.763Z,19.10
2022-09-04T02:03:40.348Z,18.86
2022-09-04T02:06:36.794Z,18.65
2022-09-04T02:09:33.960Z,18.86
2022-09-04T02:12:36.037Z,18.92
2022-09-04T02:15:18.254Z,18.81
2022-09-04T02:18:15.595Z,18.76
2022-09-04T02:20:50.116Z,18.78
2022-09-04T02:23:29.935Z,18.66
2022-09-04T02:26:04.917Z,18.89
2022-09-04T02:29:01.985Z,18.65
2022-09-04T02:31:49.369Z,18.43
2022-09-04T02:34:30.364Z,18.62
2022-09-04T02:37:26.915Z,18.41
2022-09-04T02:40:04.303Z,18.78
2022-09-04T02:42:40.046Z,18.87
2022-09-04T02:45:14.350Z,18.80
2022-09-04T02:48:05.698Z,18.78
2022-09-04T02:50:55.675Z,19.00
2022-09-04T02:53:31.575Z,19.08
2022-09-04T02:56:21.504Z,18.74
2022-09-04T02:59:28.728Z,18.75
2022-09-04T03:02:05.504Z,18.97
2022-09-04T03:05:05.150Z,18.96
2022-09-04T03:07:49.629Z,19.19
2022-09-04T03:10:20.294Z,19.21
2022-09-04T03:12:52.758Z,19.18
2022-09-04T03:15:35.123Z,19.32
2022-09-04T03:18:14.973Z,19.33
2022-09-04T03:21:08.527Z,19.19
2022-09-04T03:23:46.318Z,19.13
2022-09-04T03:26:20.964Z,19.43
2022-09-04T03:28:54.673Z,19.21
2022-09-04T03:31:29.482Z,19.21
2022-09-04T03:34:11.627Z,19.21
2022-09-04T03:37:12.873Z,19.39
2022-09-04T03:40:04.595Z,19.27
2022-09-04T03:42:45.441Z,19.13
2022-09-04T03:45:22.861Z,18.81
2022-09-04T03:48:09.986Z,18.91
2022-09-04T03:50:57.004Z,19.44
2022-09-04T03:53:41.126Z,19.12
2022-09-04T03:56:43.542Z,19.16
2022-09-04T03:59:26.632Z,18.77
2022-09-04T04:02:04.914Z,18.86
2022-09-04T04:04:49.418Z,19.09
2022-09-04T04:07:47.071Z,18.94
2022-09-04T04:10:55.382Z,18.67
2022-09-04T04:13:48.649Z,18.75
2022-09-04T04:16:32.329Z,18.51
2022-09-04T04:19:24.926Z,18.61
2022-09-04T04:22:21.795Z,18.57
2022-09-04T04:24:57.577Z,18.58
2022-09-04T04:28:01.644Z,18.34
2022-09-04T04:30:37.472Z,17.98
2022-09-04T04:33:18.014Z,18.15
2022-09-04T04:36:10.265Z,18.32
2022-09-04T04:39:19.880Z,18.38
2022-09-04T04:42:10.553Z,18.29
2022-09-04T04:45:24.655Z,18.41
2022-09-04T04:48:00.671Z,18.39
2022-09-04T04:50:42.670Z,18.47
2022-09-04T04:53:24.959Z,18.55
2022-09-04T04:56:15.357Z,18.44
2022-09-04T04:59:20.787Z,18.88
2022-09-04T05:01:51.956Z,18.53
2022-09-04T05:04:25.478Z,18.59
2022-09-04T05:07:01.791Z,18.50
2022-09-04T05:09:37.832Z,18.53
2022-09-04T05:12:15.414Z,18.71
2022-09-04T05:14:55.929Z,18.85
2022-09-04T05:17:45.455Z,18.89
2022-09-04T05:20:38.615Z,19.00
2022-09-04T05:23:24.928Z,18.97
2022-09-04T05:26:26.724Z,19.25
2022-09-04T05:29:18.273Z,18.70
2022-09-04T05:32:31.124Z,19.21
2022-09-04T05:35:12.156Z,19.32
2022-09-04T05:38:07.736Z,19.62
2022-09-04T05:40:50.941Z,19.51
2022-09-04T05:43:38.096Z,19.44
2022-09-04T05:46:22.528Z,19.36
2022-09-04T05:49:09.454Z,19.44
2022-09-04T05:52:01.090Z,19.34
2022-09-04T05:54:55.714Z,19.18
2022-09-04T05:57:49.320Z,19.59
2022-09-04T06:00:21.091Z,19.74
2022-09-04T06:03:00.433Z,19.76
2022-09-04T06:05:58.476Z,19.64
2022-09-04T06:08:54.520Z,19.59
2022-09-04T06:11:45.142Z,19.55
2022-09-04T06:14:20.638Z,19.56
2022-09-04T06:17:14.055Z,19.51
2022-09-04T06:20:02.538Z,19.60
2022-09-04T06:23:03.364Z,19.76
2022-09-04T06:25:58.842Z,19.65
2022-09-04T06:28:40.920Z,19.98
2022-09-04T06:31:13.329Z,19.82
2022-09-04T06:33:44.762Z,20.10
2022-09-04T06:36:38.998Z,20.15
2022-09-04T06:39:22.417Z,19.92
2022-09-04T06:42:00.488Z,19.99
2022-09-04T06:45:04.506Z,20.30
2022-09-04T06:48:11.637Z,20.07
2022-09-04T06:50:46.689Z,20.28
2022-09-04T06:53:43.428Z,20.37
2022-09-04T06:56:24.240Z,20.18
2022-09-04T06:59:27.284Z,20.08
2022-09-04T07:02:04.299Z,20.06
2022-09-04T07:04:48.370Z,20.29
2022-09-04T07:07:19.818Z,20.29
2022-09-04T07:10:01.332Z,20.43
2022-09-04T07:12:41.788Z,20.32
2022-09-04T07:15:49.899Z,20.53
2022-09-04T07:18:39.017Z,20.34
2022-09-04T07:21:48.743Z,20.67
2022-09-04T07:24:39.757Z,20.52
2022-09-04T07:27:42.117Z,20.79
2022-09-04T07:30:16.081Z,20.73
2022-09-04T07:32:51.511Z,20.78
2022-09-04T07:35:39.497Z,20.56
2022-09-04T07:38:34.973Z,20.93
2022-09-04T07:41:20.119Z,21.13
2022-09-04T07:44:04.182Z,21.39
2022-09-04T07:47:12.190Z,21.20
2022-09-04T07:50:17.670Z,21.45
2022-09-04T07:53:04.156Z,21.49
2022-09-04T07:55:41.496Z,21.13
2022-09-04T07:58:20.114Z,21.45
2022-09-04T08:01:00.513Z,21.27
2022-09-04T08:03:53.844Z,21.38
2022-09-04T08:06:34.065Z,21.41
2022-09-04T08:09:05.739Z,21.33
2022-09-04T08:11:34.028Z,21.54
2022-09-04T08:14:18.570Z,21.24
2022-09-04T08:17:24.623Z,21.61
2022-09-04T08:20:12.771Z,21.83
2022-09-04T08:23:13.286Z,22.11
2022-09-04T08:25:53.940Z,22.03
2022-09-04T08:28:59.455Z,21.69
2022-09-04T08:31:37.480Z,22.10
2022-09-04T08:34:11.908Z,22.36
2022-09-04T08:36:52.892Z,22.21
2022-09-04T08:39:32.875Z,21.95
2022-09-04T08:42:17.621Z,21.95
2022-09-04T08:45:04.602Z,22.26
2022-09-04T08:47:55.353Z,22.34
2022-09-04T08:51:03.463Z,22.12
2022-09-04T08:53:47.748Z,22.28
2022-09-04T08:56:39.104Z,22.23
2022-09-04T08:59:42.784Z,22.28
2022-09-04T09:02:41.955Z,22.37
2022-09-04T09:05:45.968Z,22.10
2022-09-04T09:08:21.784Z,22.27
2022-09-04T09:11:19.681Z,22.21
2022-09-04T09:14:25.576Z,22.25
2022-09-04T09:17:10.294Z,22.29
2022-09-04T09:20:02.925Z,22.66
2022-09-04T09:23:10.788Z,22.78
2022-09-04T09:25:44.100Z,22.62
2022-09-04T09:28:23.478Z,22.79
2022-09-04T09:31:17.073Z,22.73
2022-09-04T09:34:19.352Z,22.81
2022-09-04T09:37:06.790Z,22.77
2022-09-04T09:40:09.801Z,22.73
2022-09-04T09:42:48.939Z,22.73
2022-09-04T09:45:27.887Z,22.78
2022-09-04T09:48:14.687Z,23.00
2022-09-04T09:51:10.127Z,22.80
2022-09-04T09:54:16.725Z,22.84
2022-09-04T09:57:00.325Z,22.89
2022-09-04T09:59:55.733Z,22.89
2022-09-04T10:02:33.608Z,22.74
2022-09-04T10:05:11.215Z,22.87
2022-09-04T10:08:21.743Z,22.94
2022-09-04T10:11:23.932Z,23.24
2022-09-04T10:14:17.075Z,23.00
2022-09-04T10:17:30.896Z,22.95
2022-09-04T10:20:24.025Z,23.04
2022-09-04T10:23:08.012Z,22.83
2022-09-04T10:25:55.552Z,22.93
2022-09-04T10:28:45.251Z,22.95
2022-09-04T10:31:32.949Z,22.94
2022-09-04T10:34:41.728Z,23.06
2022-09-04T10:37:19.490Z,23.09
2022-09-04T10:40:18.705Z,22.82
2022-09-04T10:43:11.681Z,22.75
2022-09-04T10:46:01.230Z,22.77
2022-09-04T10:48:59.100Z,22.60
2022-09-04T10:51:37.524Z,22.93
2022-09-04T10:54:33.848Z,22.55
2022-09-04T10:57:31.927Z,22.32
2022-09-04T11:00:08.685Z,22.36
2022-09-04T11:02:57.233Z,22.51
2022-09-04T11:05:37.896Z,22.33
2022-09-04T11:08:36.573Z,21.89
2022-09-04T11:11:23.691Z,21.81
2022-09-04T11:14:06.917Z,21.65
2022-09-04T11:16:57.045Z,22.19
2022-09-04T11:20:03.452Z,22.67
2022-09-04T11:22:46.219Z,22.57
2022-09-04T11:25:52.532Z,22.95
2022-09-04T11:28:57.107Z,23.19
2022-09-04T11:32:03.361Z,23.02
2022-09-04T11:34:57.337Z,23.18
2022-09-04T11:37:36.731Z,23.31
2022-09-04T11:40:26.480Z,23.13
2022-09-04T11:43:01.214Z,23.10
2022-09-04T11:45:41.636Z,23.57
2022-09-04T11:48:37.901Z,23.54
2022-09-04T11:51:39.726Z,23.92
2022-09-04T11:54:11.317Z,24.00
2022-09-04T11:56:58.298Z,24.25
2022-09-04T11:59:56.395Z,23.87
2022-09-04T12:02:30.957Z,24.16
2022-09-04T12:05:19.155Z,24.24
2022-09-04T12:07:59.638Z,24.00
2022-09-04T12:10:28.790Z,24.45
2022-09-04T12:13:15.864Z,24.60
2022-09-04T12:15:54.729Z,24.78
2022-09-04T12:18:56.186Z,24.86
2022-09-04T12:21:54.280Z,24.73
2022-09-04T12:24:34.342Z,24.87
2022-09-04T12:27:39.365Z,24.96
2022-09-04T12:30:08.041Z,25.20
2022-09-04T12:32:49.002Z,25.28
2022-09-04T12:35:39.493Z,25.32
2022-09-04T12:38:15.471Z,25.25
2022-09-04T12:40:58.786Z,25.57
2022-09-04T12:43:43.177Z,25.48
2022-09-04T12:46:14.479Z,25.82
2022-09-04T12:48:57.018Z,25.57
2022-09-04T12:51:31.563Z,25.53
2022-09-04T12:54:13.878Z,25.72
2022-09-04T12:56:49.094Z,25.59
2022-09-04T12:59:45.213Z,25.60
2022-09-04T13:02:38.482Z,25.83
2022-09-04T13:05:41.892Z,26.03
2022-09-04T13:09:02.298Z,26.42
2022-09-04T13:11:54.751Z,26.68
2022-09-04T13:14:54.140Z,26.56
2022-09-04T13:17:44.312Z,26.38
2022-09-04T13:20:22.503Z,26.39
2022-09-04T13:23:11.087Z,26.92
2022-09-04T13:26:12.267Z,26.88
2022-09-04T13:28:58.589Z,26.27
2022-09-04T13:31:42.095Z,26.37
2022-09-04T13:34:55.085Z,26.38
2022-09-04T13:37:56.476Z,26.89
2022-09-04T13:41:03.649Z,26.11
2022-09-04T13:43:41.414Z,26.41
2022-09-04T13:46:18.541Z,26.78
2022-09-04T13:48:52.315Z,26.75
2022-09-04T13:51:31.141Z,27.21
2022-09-04T13:54:27.103Z,26.94
2022-09-04T13:57:14.878Z,27.52
2022-09-04T13:59:46.301Z,27.64
2022-09-04T14:02:24.856Z,27.64
2022-09-04T14:05:01.330Z,27.72
2022-09-04T14:07:44.820Z,28.64
2022-09-04T14:10:18.300Z,28.38
2022-09-04T14:13:03.405Z,28.41
2022-09-04T14:15:41.073Z,28.77
2022-09-04T14:18:14.258Z,28.68
2022-09-04T14:21:01.421Z,28.87
2022-09-04T14:23:42.308Z,28.62
2022-09-04T14:26:20.715Z,28.45
2022-09-04T14:28:54.121Z,28.53
2022-09-04T14:31:34.059Z,28.87
2022-09-04T14:34:16.245Z,28.39
2022-09-04T14:37:26.962Z,27.82
2022-09-04T14:40:10.290Z,27.71
2022-09-04T14:42:46.914Z,27.43
2022-09-04T14:45:32.440Z,27.70
2022-09-04T14:48:06.789Z,27.74
2022-09-04T14:50:47.601Z,28.06
2022-09-04T14:53:29.673Z,28.07
2022-09-04T14:56:26.232Z,27.58
2022-09-04T14:59:00.287Z,27.64
2022-09-04T15:01:29.536Z,27.57
2022-09-04T15:04:10.831Z,27.86
2022-09-04T15:07:10.823Z,28.03
2022-09-04T15:09:43.811Z,27.44
2022-09-04T15:12:25.546Z,27.66
2022-09-04T15:14:59.359Z,27.96
2022-09-04T15:17:28.670Z,27.94
2022-09-04T15:20:14.185Z,27.96
2022-09-04T15:23:02.725Z,27.87
2022-09-04T15:25:57.651Z,28.11
2022-09-04T15:28:38.708Z,27.96
2022-09-04T15:31:16.021Z,27.66
2022-09-04T15:33:47.367Z,27.74
2022-09-04T15:36:20.322Z,27.49
2022-09-04T15:38:52.236Z,27.86
2022-09-04T15:41:35.285Z,27.68
2022-09-04T15:44:39.085Z,27.89
2022-09-04T15:47:38.525Z,27.66
2022-09-04T15:50:26.469Z,27.47
2022-09-04T15:53:00.673Z,27.16
2022-09-04T15:55:37.368Z,27.71
2022-09-04T15:58:23.803Z,27.43
2022-09-04T16:01:16.797Z,27.03
2022-09-04T16:03:55.517Z,27.19
2022-09-04T16:06:38.035Z,27.11
2022-09-04T16:09:17.054Z,26.73
2022-09-04T16:12:00.987Z,27.04
2022-09-04T16:14:44.875Z,26.91
2022-09-04T16:17:25.292Z,26.94
2022-09-04T16:20:07.970Z,27.22
2022-09-04T16:22:50.101Z,26.87
2022-09-04T16:25:19.288Z,26.96
2022-09-04T16:27:54.519Z,27.14
2022-09-04T16:30:35.409Z,26.84
2022-09-04T16:33:12.953Z,27.15
2022-09-04T16:35:52.570Z,26.93
2022-09-04T16:38:26.057Z,26.76
2022-09-04T16:40:59.592Z,26.58
2022-09-04T16:43:29.402Z,26.16
2022-09-04T16:46:23.746Z,26.24
2022-09-04T16:48:58.172Z,25.88
2022-09-04T16:51:40.977Z,25.75
2022-09-04T16:54:21.259Z,25.60
2022-09-04T16:57:12.420Z,25.13
2022-09-04T16:59:58.809Z,25.27
2022-09-04T17:02:49.025Z,24.99
2022-09-04T17:05:35.312Z,25.01
2022-09-04T17:08:17.989Z,25.12
2022-09-04T17:11:30.568Z,24.73
2022-09-04T17:14:32.408Z,24.53
2022-09-04T17:17:31.366Z,24.52
2022-09-04T17:20:08.249Z,24.24
2022-09-04T17:28:09.365Z,24.09
2022-09-04T17:29:19.625Z,24.25
2022-09-04T17:29:22.444Z,24.17
2022-09-04T17:31:53.855Z,23.89
2022-09-04T17:40:38.228Z,23.90
2022-09-04T17:40:44.351Z,24.06
2022-09-04T17:43:29.585Z,23.93
2022-09-04T17:46:26.679Z,23.98
2022-09-04T17:48:56.080Z,24.12
2022-09-04T17:51:27.928Z,24.23
2022-09-04T17:54:02.348Z,24.39
2022-09-04T17:56:55.145Z,24.24
2022-09-04T17:59:28.880Z,24.30
2022-09-04T18:02:21.467Z,23.95
2022-09-04T18:05:11.907Z,24.58
2022-09-04T18:08:10.051Z,24.73
2022-09-04T18:10:52.310Z,24.62
2022-09-04T18:13:40.849Z,24.29
2022-09-04T18:16:33.534Z,24.48
2022-09-04T18:19:15.003Z,24.58
2022-09-04T18:21:46.004Z,24.50
2022-09-04T18:24:21.284Z,24.52
2022-09-04T18:27:11.696Z,23.90
2022-09-04T18:30:58.588Z,24.05
2022-09-04T18:37:16.635Z,24.26
2022-09-04T18:37:22.455Z,24.16
2022-09-04T18:39:08.902Z,24.14
2022-09-04T18:49:28.312Z,23.76
2022-09-04T18:50:29.642Z,23.99
2022-09-04T18:50:48.964Z,24.13
2022-09-04T18:54:10.456Z,23.88
2022-09-04T18:56:44.902Z,23.77
2022-09-04T18:59:23.824Z,23.76
2022-09-04T19:02:14.276Z,23.12
2022-09-04T19:05:12.006Z,23.07
2022-09-04T19:07:47.256Z,23.22
2022-09-04T19:10:22.377Z,22.97
2022-09-04T19:12:58.309Z,22.70
2022-09-04T19:15:49.423Z,23.23
2022-09-04T19:18:30.695Z,23.61
2022-09-04T19:21:02.473Z,23.74
2022-09-04T19:23:44.227Z,23.33
2022-09-04T19:26:47.923Z,23.13
2022-09-04T19:29:23.664Z,23.46
2022-09-04T19:32:09.082Z,23.55
2022-09-04T19:35:07.360Z,22.91
2022-09-04T19:40:36.634Z,22.74
2022-09-04T19:45:55.730Z,23.08
2022-09-04T19:46:15.861Z,22.82
2022-09-04T19:47:27.462Z,22.73
2022-09-04T19:53:34.344Z,22.46
2022-09-04T19:53:37.787Z,22.47
2022-09-04T19:56:45.710Z,22.74
2022-09-04T19:59:30.463Z,22.56
2022-09-04T20:02:02.783Z,22.96
2022-09-04T20:04:42.324Z,22.94
2022-09-04T20:07:24.315Z,22.70
2022-09-04T20:09:56.536Z,22.56
2022-09-04T20:12:32.459Z,22.54
2022-09-04T20:15:12.209Z,22.48
2022-09-04T20:18:13.497Z,22.53
2022-09-04T20:20:59.600Z,23.11
2022-09-04T20:23:43.992Z,22.71
2022-09-04T20:26:25.722Z,22.49
2022-09-04T20:29:14.092Z,22.27
2022-09-04T20:32:11.822Z,22.51
2022-09-04T20:35:18.103Z,22.61
2022-09-04T20:37:56.620Z,22.49
2022-09-04T20:40:36.701Z,22.86
2022-09-04T20:43:28.816Z,22.99
2022-09-04T20:50:50.221Z,22.96
2022-09-04T20:52:49.568Z,22.44
2022-09-04T20:52:57.425Z,22.18
2022-09-04T20:55:04.576Z,22.61
2022-09-04T21:02:19.622Z,22.89
2022-09-04T21:03:23.362Z,22.97
2022-09-04T21:03:30.961Z,22.85
2022-09-04T21:06:25.429Z,22.39
2022-09-04T21:09:04.024Z,22.07
2022-09-04T21:11:45.998Z,22.25
2022-09-04T21:14:45.511Z,22.40
2022-09-04T21:17:33.775Z,22.47
2022-09-04T21:20:11.520Z,22.41
2022-09-04T21:23:04.160Z,22.39
2022-09-04T21:26:00.153Z,22.45
2022-09-04T21:29:07.287Z,22.47
2022-09-04T21:32:03.725Z,22.42
2022-09-04T21:35:13.215Z,21.90
2022-09-04T21:38:03.263Z,21.57
2022-09-04T21:40:50.761Z,21.41
2022-09-04T21:43:35.701Z,21.10
2022-09-04T21:46:39.118Z,20.98
2022-09-04T21:49:29.142Z,21.06
2022-09-04T21:52:02.881Z,21.28
2022-09-04T21:57:19.363Z,21.07
2022-09-04T22:02:27.917Z,21.20
2022-09-04T22:02:43.087Z,21.06
2022-09-04T22:04:44.455Z,21.18
2022-09-04T22:13:04.518Z,21.25
2022-09-04T22:13:30.494Z,21.14
2022-09-04T22:14:17.162Z,21.23
2022-09-04T22:17:07.366Z,20.99
2022-09-04T22:20:03.846Z,21.09
2022-09-04T22:23:08.337Z,20.75
2022-09-04T22:25:47.691Z,20.62
2022-09-04T22:28:22.303Z,20.40
2022-09-04T22:31:14.909Z,20.40
2022-09-04T22:34:15.922Z,20.91
2022-09-04T22:37:20.421Z,20.54
2022-09-04T22:40:14.967Z,20.97
2022-09-04T22:43:12.417Z,20.62
2022-09-04T22:46:11.486Z,20.58
2022-09-04T22:49:12.256Z,20.52
2022-09-04T22:52:00.863Z,20.94
2022-09-04T22:55:17.824Z,20.99
2022-09-04T22:58:15.485Z,21.02
2022-09-04T23:01:12.455Z,21.05
2022-09-04T23:04:09.150Z,20.96
2022-09-04T23:12:15.541Z,20.95
2022-09-04T23:13:49.354Z,20.83
2022-09-04T23:14:02.316Z,20.60
2022-09-04T23:16:36.253Z,20.62
2022-09-04T23:23:30.626Z,20.18
2022-09-04T23:26:47.170Z,19.97
2022-09-04T23:26:50.537Z,20.18
2022-09-04T23:29:21.457Z,20.27
2022-09-04T23:32:06.899Z,20.40
2022-09-04T23:35:15.752Z,20.42
2022-09-04T23:37:45.417Z,19.62
2022-09-04T23:40:28.346Z,19.73
2022-09-04T23:43:25.844Z,19.53
2022-09-04T23:46:34.299Z,19.57
2022-09-04T23:49:35.288Z,19.47
2022-09-04T23:52:18.722Z,19.26
2022-09-04T23:55:06.659Z,19.49
2022-09-04T23:57:48.147Z,19.48
